createdAt,value
2022-12-26T00:00:12.420Z,100261.44
2022-12-26T00:02:43.137Z,100264.44
2022-12-26T00:05:14.339Z,100258.25
2022-12-26T00:07:45.333Z,100230.31
2022-12-26T00:10:15.915Z,100265.38
2022-12-26T00:12:50.577Z,100262.84
2022-12-26T00:15:21.138Z,100238.88
2022-12-26T00:17:52.704Z,100256.06
2022-12-26T00:20:23.201Z,100245.75
2022-12-26T00:22:54.899Z,100251.66
2022-12-26T00:25:25.551Z,100263.38
2022-12-26T00:27:58.662Z,100264.22
2022-12-26T00:30:30.093Z,100261.59
2022-12-26T00:33:00.611Z,100251.53
2022-12-26T00:35:33.609Z,100247.38
2022-12-26T00:38:04.011Z,100254.03
2022-12-26T00:40:43.027Z,100245.59
2022-12-26T00:43:16.614Z,100244.75
2022-12-26T00:45:47.699Z,100249.00
2022-12-26T00:48:18.103Z,100249.13
2022-12-26T00:50:52.599Z,100243.25
2022-12-26T00:53:23.739Z,100251.81
2022-12-26T00:55:55.140Z,100245.88
2022-12-26T00:58:28.733Z,100249.28
2022-12-26T01:01:07.762Z,100256.97
2022-12-26T01:03:38.628Z,100270.28
2022-12-26T01:06:09.487Z,100269.41
2022-12-26T01:08:40.101Z,100270.16
2022-12-26T01:11:12.520Z,100265.72
2022-12-26T01:13:46.129Z,100273.91
2022-12-26T01:16:16.548Z,100261.69
2022-12-26T01:18:47.009Z,100265.69
2022-12-26T01:21:17.410Z,100260.25
2022-12-26T01:23:47.880Z,100264.00
2022-12-26T01:26:20.279Z,100264.72
2022-12-26T01:28:54.994Z,100272.75
2022-12-26T01:31:26.732Z,100279.25
2022-12-26T01:33:58.045Z,100277.25
2022-12-26T01:36:30.014Z,100282.28
2022-12-26T01:39:00.523Z,100272.22
2022-12-26T01:41:33.323Z,100254.44
2022-12-26T01:44:30.049Z,100274.88
2022-12-26T01:47:04.126Z,100271.78
2022-12-26T01:49:40.419Z,100281.72
2022-12-26T01:52:18.133Z,100283.94
2022-12-26T01:54:52.999Z,100281.44
2022-12-26T01:57:27.413Z,100276.09
2022-12-26T02:00:02.280Z,100291.19
2022-12-26T02:02:53.245Z,100291.78
2022-12-26T02:05:34.739Z,100292.25
2022-12-26T02:08:26.895Z,100292.59
2022-12-26T02:11:03.691Z,100294.06
2022-12-26T02:13:38.328Z,100298.97
2022-12-26T02:16:15.341Z,100303.09
2022-12-26T02:18:45.791Z,100304.75
2022-12-26T02:21:41.039Z,100305.22
2022-12-26T02:24:45.211Z,100313.47
2022-12-26T02:27:45.197Z,100292.34
2022-12-26T02:30:38.889Z,100315.06
2022-12-26T02:33:37.531Z,100314.19
2022-12-26T02:36:31.443Z,100311.66
2022-12-26T02:39:43.410Z,100319.97
2022-12-26T02:42:19.619Z,100306.66
2022-12-26T02:45:21.214Z,100302.38
2022-12-26T02:47:59.396Z,100295.72
2022-12-26T02:51:07.195Z,100291.56
2022-12-26T02:53:57.218Z,100300.91
2022-12-26T02:56:45.754Z,100293.34
2022-12-26T02:59:55.001Z,100293.34
2022-12-26T03:02:47.520Z,100307.53
2022-12-26T03:05:38.401Z,100293.63
2022-12-26T03:08:25.607Z,100292.13
2022-12-26T03:11:11.286Z,100315.91
2022-12-26T03:13:44.817Z,100301.84
2022-12-26T03:16:32.356Z,100299.47
2022-12-26T03:19:06.031Z,100308.03
2022-12-26T03:21:43.662Z,100302.44
2022-12-26T03:24:17.182Z,100302.44
2022-12-26T03:26:52.105Z,100302.56
2022-12-26T03:29:36.640Z,100305.97
2022-12-26T03:32:08.402Z,100308.63
2022-12-26T03:34:43.519Z,100305.38
2022-12-26T03:37:49.650Z,100306.25
2022-12-26T03:40:44.853Z,100301.97
2022-12-26T03:43:53.746Z,100310.66
2022-12-26T03:46:41.443Z,100304.16
2022-12-26T03:49:36.082Z,100310.06
2022-12-26T03:52:24.480Z,100310.75
2022-12-26T03:55:17.931Z,100303.66
2022-12-26T03:58:07.205Z,100326.59
2022-12-26T04:00:52.085Z,100319.00
2022-12-26T04:03:37.753Z,100317.19
2022-12-26T04:06:28.523Z,100316.59
2022-12-26T04:09:23.247Z,100333.56
2022-12-26T04:12:10.035Z,100331.03
2022-12-26T04:14:57.760Z,100341.88
2022-12-26T04:17:47.032Z,100338.78
2022-12-26T04:20:23.410Z,100329.78
2022-12-26T04:23:11.340Z,100331.88
2022-12-26T04:26:00.404Z,100332.63
2022-12-26T04:28:46.213Z,100335.69
2022-12-26T04:31:36.071Z,100324.25
2022-12-26T04:34:24.950Z,100334.75
2022-12-26T04:37:15.205Z,100327.72
2022-12-26T04:40:03.301Z,100338.28
2022-12-26T04:43:02.383Z,100331.59
2022-12-26T04:46:04.104Z,100331.59
2022-12-26T04:48:47.684Z,100332.38
2022-12-26T04:51:18.213Z,100326.31
2022-12-26T04:53:48.729Z,100330.59
2022-12-26T04:56:19.379Z,100323.81
2022-12-26T04:58:49.938Z,100322.19
2022-12-26T05:01:35.558Z,100324.94
2022-12-26T05:04:18.598Z,100331.34
2022-12-26T05:07:01.534Z,100342.91
2022-12-26T05:09:40.292Z,100348.06
2022-12-26T05:12:12.994Z,100351.72
2022-12-26T05:14:46.737Z,100360.44
2022-12-26T05:17:32.302Z,100362.94
2022-12-26T05:20:15.221Z,100369.75
2022-12-26T05:23:00.707Z,100368.88
2022-12-26T05:25:46.584Z,100364.59
2022-12-26T05:28:30.786Z,100372.28
2022-12-26T05:31:04.061Z,100365.97
2022-12-26T05:33:49.583Z,100368.03
2022-12-26T05:36:23.232Z,100368.25
2022-12-26T05:38:56.199Z,100370.03
2022-12-26T05:41:26.860Z,100389.72
2022-12-26T05:43:57.392Z,100393.72
2022-12-26T05:46:28.219Z,100396.22
2022-12-26T05:49:01.447Z,100399.00
2022-12-26T05:51:32.483Z,100399.50
2022-12-26T05:54:08.984Z,100409.06
2022-12-26T05:56:48.990Z,100409.81
2022-12-26T05:59:19.885Z,100385.47
2022-12-26T06:01:51.250Z,100405.25
2022-12-26T06:04:30.112Z,100410.72
2022-12-26T06:07:00.576Z,100400.34
2022-12-26T06:09:31.039Z,100386.16
2022-12-26T06:12:01.651Z,100377.13
2022-12-26T06:14:32.281Z,100394.59
2022-12-26T06:17:02.795Z,100393.91
2022-12-26T06:19:38.909Z,100387.53
2022-12-26T06:22:14.165Z,100397.31
2022-12-26T06:24:44.608Z,100392.03
2022-12-26T06:27:15.060Z,100393.22
2022-12-26T06:29:46.160Z,100408.16
2022-12-26T06:32:18.372Z,100420.59
2022-12-26T06:34:53.910Z,100419.25
2022-12-26T06:37:24.338Z,100409.50
2022-12-26T06:39:54.988Z,100420.91
2022-12-26T06:42:25.502Z,100431.41
2022-12-26T06:44:56.285Z,100421.53
2022-12-26T06:47:27.363Z,100415.63
2022-12-26T06:50:00.548Z,100426.38
2022-12-26T06:52:32.904Z,100405.25
2022-12-26T06:55:04.142Z,100414.72
2022-12-26T06:57:34.834Z,100423.00
2022-12-26T07:00:06.366Z,100415.78
2022-12-26T07:02:36.960Z,100406.19
2022-12-26T07:05:13.357Z,100410.91
2022-12-26T07:07:47.371Z,100401.31
2022-12-26T07:10:17.771Z,100392.00
2022-12-26T07:12:48.324Z,100395.25
2022-12-26T07:15:18.983Z,100400.00
2022-12-26T07:17:49.441Z,100411.53
2022-12-26T07:20:22.507Z,100416.53
2022-12-26T07:22:53.333Z,100422.31
2022-12-26T07:25:23.812Z,100419.50
2022-12-26T07:27:56.461Z,100418.03
2022-12-26T07:30:27.114Z,100414.47
2022-12-26T07:32:58.316Z,100423.94
2022-12-26T07:35:31.365Z,100423.94
2022-12-26T07:38:01.855Z,100418.91
2022-12-26T07:40:32.751Z,100423.78
2022-12-26T07:43:03.569Z,100454.97
2022-12-26T07:45:35.506Z,100433.09
2022-12-26T07:48:08.795Z,100441.66
2022-12-26T07:50:42.071Z,100437.38
2022-12-26T07:53:12.684Z,100445.94
2022-12-26T07:55:49.760Z,100458.78
2022-12-26T07:58:20.315Z,100456.28
2022-12-26T08:00:54.814Z,100463.22
2022-12-26T08:03:25.521Z,100466.47
2022-12-26T08:06:01.497Z,100461.03
2022-12-26T08:08:32.199Z,100461.16
2022-12-26T08:11:03.773Z,100464.53
2022-12-26T08:13:37.759Z,100459.50
2022-12-26T08:16:09.412Z,100469.13
2022-12-26T08:18:40.017Z,100453.91
2022-12-26T08:21:14.792Z,100457.28
2022-12-26T08:23:48.328Z,100458.00
2022-12-26T08:26:22.795Z,100436.47
2022-12-26T08:28:55.071Z,100473.53
2022-12-26T08:31:28.629Z,100448.44
2022-12-26T08:34:00.412Z,100455.50
2022-12-26T08:36:38.357Z,100471.59
2022-12-26T08:39:09.143Z,100453.16
2022-12-26T08:41:40.369Z,100465.22
2022-12-26T08:44:29.178Z,100456.22
2022-12-26T08:47:01.172Z,100461.97
2022-12-26T08:49:31.929Z,100464.91
2022-12-26T08:52:05.155Z,100454.44
2022-12-26T08:54:39.220Z,100468.91
2022-12-26T08:57:10.418Z,100468.16
2022-12-26T08:59:41.078Z,100480.13
2022-12-26T09:02:13.235Z,100483.69
2022-12-26T09:04:44.099Z,100475.50
2022-12-26T09:07:17.609Z,100488.38
2022-12-26T09:09:48.439Z,100481.88
2022-12-26T09:12:19.065Z,100492.06
2022-12-26T09:14:50.352Z,100480.22
2022-12-26T09:17:21.587Z,100484.66
2022-12-26T09:19:52.194Z,100489.13
2022-12-26T09:22:40.560Z,100490.16
2022-12-26T09:25:12.524Z,100489.56
2022-12-26T09:27:43.119Z,100504.06
2022-12-26T09:30:19.256Z,100492.34
2022-12-26T09:32:54.121Z,100493.53
2022-12-26T09:35:24.858Z,100500.31
2022-12-26T09:37:58.097Z,100494.53
2022-12-26T09:40:36.665Z,100497.22
2022-12-26T09:43:22.886Z,100496.81
2022-12-26T09:46:07.169Z,100490.69
2022-12-26T09:48:49.928Z,100497.03
2022-12-26T09:51:20.569Z,100497.19
2022-12-26T09:53:54.645Z,100488.16
2022-12-26T09:59:22.468Z,100490.25
2022-12-26T10:01:54.045Z,100479.28
2022-12-26T10:04:30.519Z,100469.84
2022-12-26T10:07:16.370Z,100478.50
2022-12-26T10:10:01.323Z,100469.34
2022-12-26T10:12:41.423Z,100481.25
2022-12-26T10:15:37.726Z,100494.28
2022-12-26T10:18:25.752Z,100496.34
2022-12-26T10:21:18.923Z,100468.81
2022-12-26T10:23:51.947Z,100479.81
2022-12-26T10:26:27.936Z,100482.00
2022-12-26T10:29:05.582Z,100486.72
2022-12-26T10:31:41.276Z,100490.41
2022-12-26T10:34:18.836Z,100483.38
2022-12-26T10:36:53.461Z,100490.34
2022-12-26T10:39:36.390Z,100481.91
2022-12-26T10:42:26.426Z,100476.25
2022-12-26T10:44:57.033Z,100477.03
2022-12-26T10:47:30.593Z,100473.63
2022-12-26T10:50:01.609Z,100465.63
2022-12-26T10:52:38.142Z,100464.34
2022-12-26T10:55:27.996Z,100427.09
2022-12-26T10:58:06.655Z,100458.84
2022-12-26T11:00:37.915Z,100472.00
2022-12-26T11:03:10.655Z,100474.63
2022-12-26T11:08:43.010Z,100487.63
2022-12-26T11:11:22.890Z,100496.97
2022-12-26T11:14:02.019Z,100490.13
2022-12-26T11:16:35.448Z,100478.06
2022-12-26T11:19:09.815Z,100483.47
2022-12-26T11:21:39.972Z,100483.69
2022-12-26T11:24:22.258Z,100441.94
2022-12-26T11:26:52.705Z,100486.28
2022-12-26T11:29:26.920Z,100487.66
2022-12-26T11:31:59.466Z,100489.06
2022-12-26T11:34:34.739Z,100476.81
2022-12-26T11:37:08.746Z,100471.22
2022-12-26T11:39:40.898Z,100466.13
2022-12-26T11:42:13.198Z,100470.97
2022-12-26T11:44:49.420Z,100460.00
2022-12-26T11:47:22.803Z,100463.94
2022-12-26T11:50:02.444Z,100453.88
2022-12-26T11:52:40.215Z,100451.47
2022-12-26T11:55:34.300Z,100444.81
2022-12-26T11:58:21.051Z,100448.06
2022-12-26T12:01:10.881Z,100439.50
2022-12-26T12:03:49.219Z,100445.78
2022-12-26T12:06:39.526Z,100438.81
2022-12-26T12:09:22.817Z,100444.38
2022-12-26T12:12:01.399Z,100455.66
2022-12-26T12:14:49.477Z,100447.72
2022-12-26T12:17:33.633Z,100418.09
2022-12-26T12:20:30.558Z,100407.81
2022-12-26T12:23:19.621Z,100424.16
2022-12-26T12:26:02.417Z,100423.88
2022-12-26T12:29:11.549Z,100429.66
2022-12-26T12:31:54.227Z,100417.63
2022-12-26T12:34:42.312Z,100419.16
2022-12-26T12:37:26.621Z,100417.97
2022-12-26T12:40:06.019Z,100418.09
2022-12-26T12:42:47.013Z,100410.06
2022-12-26T12:45:27.351Z,100407.91
2022-12-26T12:48:21.454Z,100415.63
2022-12-26T12:51:07.423Z,100400.53
2022-12-26T12:53:58.211Z,100407.88
2022-12-26T12:56:42.457Z,100404.31
2022-12-26T12:59:22.869Z,100412.91
2022-12-26T13:02:05.404Z,100414.66
2022-12-26T13:04:45.062Z,100407.09
2022-12-26T13:07:24.448Z,100405.47
2022-12-26T13:09:59.971Z,100407.50
2022-12-26T13:12:35.098Z,100395.66
2022-12-26T13:15:11.154Z,100393.13
2022-12-26T13:17:48.158Z,100405.53
2022-12-26T13:20:24.724Z,100387.13
2022-12-26T13:23:15.759Z,100411.97
2022-12-26T13:26:04.633Z,100408.47
2022-12-26T13:28:40.774Z,100399.53
2022-12-26T13:31:11.815Z,100397.50
2022-12-26T13:33:45.328Z,100399.66
2022-12-26T13:36:37.686Z,100416.75
2022-12-26T13:39:35.314Z,100407.16
2022-12-26T13:42:33.238Z,100443.94
2022-12-26T13:45:34.305Z,100449.66
2022-12-26T13:48:04.900Z,100459.09
2022-12-26T13:50:55.675Z,100468.44
2022-12-26T13:53:33.624Z,100482.00
2022-12-26T13:56:29.034Z,100505.94
2022-12-26T13:59:12.272Z,100503.78
2022-12-26T14:01:55.438Z,100514.38
2022-12-26T14:04:46.521Z,100513.69
2022-12-26T14:07:30.331Z,100504.72
2022-12-26T14:10:07.558Z,100511.97
2022-12-26T14:12:52.615Z,100515.78
2022-12-26T14:15:31.471Z,100515.50
2022-12-26T14:18:16.525Z,100536.81
2022-12-26T14:21:00.428Z,100524.69
2022-12-26T14:23:45.922Z,100547.44
2022-12-26T14:26:31.480Z,100566.34
2022-12-26T14:29:13.526Z,100569.56
2022-12-26T14:32:02.299Z,100578.44
2022-12-26T14:34:50.706Z,100587.88
2022-12-26T14:37:29.728Z,100605.75
2022-12-26T14:40:11.136Z,100603.66
2022-12-26T14:43:16.570Z,100615.66
2022-12-26T14:45:52.235Z,100633.19
2022-12-26T14:48:56.382Z,100630.34
2022-12-26T14:51:33.992Z,100641.34
2022-12-26T14:54:25.837Z,100647.34
2022-12-26T14:56:57.249Z,100652.75
2022-12-26T14:59:32.167Z,100645.38
2022-12-26T15:02:31.508Z,100652.88
2022-12-26T15:05:17.165Z,100661.72
2022-12-26T15:08:25.382Z,100666.41
2022-12-26T15:11:36.396Z,100678.81
2022-12-26T15:14:31.047Z,100679.06
2022-12-26T15:17:17.892Z,100686.69
2022-12-26T15:20:26.015Z,100689.63
2022-12-26T15:23:27.516Z,100693.47
2022-12-26T15:26:25.433Z,100692.59
2022-12-26T15:29:34.876Z,100703.59
2022-12-26T15:32:18.724Z,100715.47
2022-12-26T15:34:59.707Z,100714.44
2022-12-26T15:38:00.607Z,100697.09
2022-12-26T15:40:34.244Z,100728.50
2022-12-26T15:43:27.159Z,100730.75
2022-12-26T15:46:03.607Z,100742.66
2022-12-26T15:48:55.209Z,100738.06
2022-12-26T15:51:38.499Z,100740.56
2022-12-26T15:54:25.334Z,100731.25
2022-12-26T15:57:16.455Z,100736.34
2022-12-26T16:00:08.377Z,100754.81
2022-12-26T16:02:50.466Z,100747.78
2022-12-26T16:05:40.975Z,100756.97
2022-12-26T16:08:46.095Z,100764.41
2022-12-26T16:11:21.120Z,100765.34
2022-12-26T16:13:54.735Z,100774.63
2022-12-26T16:16:30.931Z,100743.72
2022-12-26T16:19:01.544Z,100784.69
2022-12-26T16:21:47.130Z,100781.47
2022-12-26T16:24:22.129Z,100804.31
2022-12-26T16:26:52.610Z,100803.63
2022-12-26T16:29:24.199Z,100803.41
2022-12-26T16:31:54.987Z,100807.22
2022-12-26T16:34:25.614Z,100807.22
2022-12-26T16:36:58.924Z,100815.09
2022-12-26T16:39:29.560Z,100819.78
2022-12-26T16:42:04.036Z,100827.44
2022-12-26T16:44:39.309Z,100833.34
2022-12-26T16:47:14.251Z,100835.47
2022-12-26T16:49:46.925Z,100832.22
2022-12-26T16:52:42.106Z,100831.91
2022-12-26T16:55:29.259Z,100830.31
2022-12-26T16:58:07.257Z,100829.41
2022-12-26T17:00:38.468Z,100826.56
2022-12-26T17:03:22.446Z,100825.09
2022-12-26T17:05:53.132Z,100822.28
2022-12-26T17:08:27.280Z,100809.38
2022-12-26T17:10:57.641Z,100822.94
2022-12-26T17:13:29.440Z,100823.53
2022-12-26T17:16:01.874Z,100832.69
2022-12-26T17:18:44.606Z,100832.63
2022-12-26T17:21:20.716Z,100844.78
2022-12-26T17:24:14.353Z,100853.41
2022-12-26T17:26:46.436Z,100867.19
2022-12-26T17:29:51.285Z,100872.75
2022-12-26T17:32:35.823Z,100863.63
2022-12-26T17:35:10.011Z,100867.75
2022-12-26T17:37:40.735Z,100875.44
2022-12-26T17:40:27.187Z,100876.53
2022-12-26T17:43:06.940Z,100881.72
2022-12-26T17:45:46.197Z,100900.41
2022-12-26T17:48:17.703Z,100912.69
2022-12-26T17:50:50.776Z,100909.84
2022-12-26T17:53:28.090Z,100894.53
2022-12-26T17:56:03.272Z,100908.06
2022-12-26T17:58:34.341Z,100912.31
2022-12-26T18:01:05.704Z,100915.19
2022-12-26T18:03:36.285Z,100920.91
2022-12-26T18:06:07.272Z,100928.22
2022-12-26T18:08:40.037Z,100931.97
2022-12-26T18:11:15.617Z,100926.97
2022-12-26T18:13:46.183Z,100929.88
2022-12-26T18:16:27.416Z,100930.22
2022-12-26T18:18:58.737Z,100929.50
2022-12-26T18:21:29.547Z,100933.59
2022-12-26T18:24:00.031Z,100929.88
2022-12-26T18:26:34.003Z,100947.72
2022-12-26T18:29:07.662Z,100942.31
2022-12-26T18:31:41.210Z,100954.94
2022-12-26T18:34:12.737Z,100956.19
2022-12-26T18:36:44.012Z,100958.66
2022-12-26T18:39:18.425Z,100954.03
2022-12-26T18:41:52.263Z,100955.59
2022-12-26T18:44:26.809Z,100955.78
2022-12-26T18:46:58.771Z,100943.81
2022-12-26T18:49:29.687Z,100955.03
2022-12-26T18:52:00.518Z,100952.16
2022-12-26T18:54:39.013Z,100953.41
2022-12-26T18:57:23.674Z,100963.88
2022-12-26T18:59:57.490Z,100974.91
2022-12-26T19:02:35.426Z,100969.94
2022-12-26T19:05:06.895Z,100972.94
2022-12-26T19:07:37.480Z,100970.09
2022-12-26T19:10:09.515Z,100964.91
2022-12-26T19:12:42.821Z,100982.53
2022-12-26T19:15:17.424Z,100976.28
2022-12-26T19:17:48.042Z,100985.38
2022-12-26T19:20:22.605Z,100996.25
2022-12-26T19:22:54.504Z,100999.59
2022-12-26T19:25:27.030Z,101001.91
2022-12-26T19:28:00.643Z,101008.50
2022-12-26T19:30:38.277Z,101001.56
2022-12-26T19:33:09.680Z,101007.22
2022-12-26T19:35:42.500Z,101012.22
2022-12-26T19:38:16.619Z,101010.44
2022-12-26T19:40:47.133Z,101011.13
2022-12-26T19:43:20.226Z,101012.94
2022-12-26T19:45:50.951Z,101018.63
2022-12-26T19:48:21.767Z,101019.84
2022-12-26T19:50:52.320Z,101013.78
2022-12-26T19:53:22.789Z,100991.47
2022-12-26T19:55:53.239Z,101013.94
2022-12-26T19:58:26.363Z,101021.22
2022-12-26T20:00:56.827Z,101018.16
2022-12-26T20:03:27.739Z,101026.72
2022-12-26T20:06:00.575Z,101026.53
2022-12-26T20:08:31.861Z,101036.50
2022-12-26T20:11:07.835Z,101045.38
2022-12-26T20:13:41.366Z,101059.06
2022-12-26T20:16:37.378Z,101048.75
2022-12-26T20:19:05.105Z,101062.78
2022-12-26T20:21:36.118Z,101067.38
2022-12-26T20:24:07.522Z,101075.75
2022-12-26T20:26:38.140Z,101066.09
2022-12-26T20:29:11.895Z,101041.25
2022-12-26T20:31:42.799Z,101075.31
2022-12-26T20:34:14.467Z,101053.28
2022-12-26T20:36:45.027Z,101065.47
2022-12-26T20:39:19.365Z,101082.22
2022-12-26T20:41:50.004Z,101080.97
2022-12-26T20:44:24.521Z,101087.34
2022-12-26T20:46:55.099Z,101087.13
2022-12-26T20:49:25.669Z,101085.84
2022-12-26T20:51:56.528Z,101091.38
2022-12-26T20:54:28.592Z,101084.03
2022-12-26T20:57:00.454Z,101096.13
2022-12-26T20:59:33.655Z,101103.72
2022-12-26T21:02:04.448Z,101103.53
2022-12-26T21:04:35.891Z,101114.00
2022-12-26T21:07:06.582Z,101113.50
2022-12-26T21:09:42.513Z,101113.50
2022-12-26T21:12:18.104Z,101117.41
2022-12-26T21:14:51.397Z,101126.16
2022-12-26T21:17:22.041Z,101114.91
2022-12-26T21:20:00.051Z,101143.81
2022-12-26T21:22:31.237Z,101137.00
2022-12-26T21:25:02.166Z,101149.66
2022-12-26T21:27:34.385Z,101145.56
2022-12-26T21:30:08.347Z,101145.56
2022-12-26T21:32:38.911Z,101165.00
2022-12-26T21:35:09.768Z,101161.97
2022-12-26T21:37:52.115Z,101133.06
2022-12-26T21:40:24.232Z,101163.47
2022-12-26T21:42:54.755Z,101166.16
2022-12-26T21:45:30.798Z,101156.88
2022-12-26T21:48:01.425Z,101169.75
2022-12-26T21:50:33.726Z,101169.03
2022-12-26T21:53:04.667Z,101164.94
2022-12-26T21:55:36.471Z,101175.63
2022-12-26T21:58:07.716Z,101176.50
2022-12-26T22:00:42.123Z,101175.63
2022-12-26T22:03:25.195Z,101172.41
2022-12-26T22:05:55.714Z,101177.28
2022-12-26T22:08:26.168Z,101173.88
2022-12-26T22:11:09.004Z,101179.94
2022-12-26T22:13:45.672Z,101184.06
2022-12-26T22:16:19.996Z,101186.75
2022-12-26T22:18:50.909Z,101180.28
2022-12-26T22:21:23.245Z,101179.94
2022-12-26T22:23:55.329Z,101192.81
2022-12-26T22:26:28.875Z,101196.00
2022-12-26T22:29:00.824Z,101194.41
2022-12-26T22:31:35.964Z,101162.25
2022-12-26T22:34:08.182Z,101197.47
2022-12-26T22:36:39.434Z,101207.81
2022-12-26T22:39:12.533Z,101205.34
2022-12-26T22:41:43.088Z,101204.97
2022-12-26T22:44:15.534Z,101214.28
2022-12-26T22:46:50.518Z,101229.00
2022-12-26T22:49:21.009Z,101242.63
2022-12-26T22:51:51.512Z,101243.53
2022-12-26T22:54:21.966Z,101234.69
2022-12-26T22:56:52.618Z,101241.00
2022-12-26T22:59:57.913Z,101230.56
2022-12-26T23:02:16.547Z,101229.28
2022-12-26T23:04:47.787Z,101224.78
2022-12-26T23:07:23.480Z,101228.91
2022-12-26T23:09:54.774Z,101236.16
2022-12-26T23:12:53.738Z,101235.59
2022-12-26T23:15:26.294Z,101233.22
2022-12-26T23:18:29.462Z,101235.31
2022-12-26T23:21:15.887Z,101234.22
2022-12-26T23:23:47.538Z,101240.59
2022-12-26T23:26:22.581Z,101228.84
2022-12-26T23:29:05.531Z,101228.97
2022-12-26T23:31:36.100Z,101221.50
2022-12-26T23:34:09.345Z,101230.75
2022-12-26T23:36:39.920Z,101228.47
2022-12-26T23:39:10.518Z,101219.00
2022-12-26T23:41:44.843Z,101230.97
2022-12-26T23:44:15.892Z,101236.63
2022-12-26T23:46:47.873Z,101242.09
2022-12-26T23:49:21.264Z,101241.22
2022-12-26T23:51:55.050Z,101224.41
2022-12-26T23:54:31.134Z,101237.13
2022-12-26T23:57:01.773Z,101238.53
2022-12-26T23:59:32.788Z,101245.63
